Time;durP1;ratioP1;P1;durP2;ratioP2;P2;SDS_P1;SDS_P2;PMS_P1;PMS_P2;Temp;Humidity;BMP_temperature;BMP_pressure;BME280_temperature;BME280_humidity;BME280_pressure;Samples;Min_cycle;Max_cycle;Signal;HPM_P1;HPM_P2
2021/11/15 00:01:45;;;;;;;16.63;10.57;;;;;;;;;;5103874;28;20101;-73
2021/11/15 00:04:12;;;;;;;15.93;10.27;;;;;;;;;;5094614;28;20403;-73
2021/11/15 00:06:38;;;;;;;17.52;11.57;;;;;;;;;;5094701;28;20025;-74
2021/11/15 00:09:05;;;;;;;16.63;11.93;;;;;;;;;;5094793;28;20024;-74
2021/11/15 00:11:31;;;;;;;20.05;12.95;;;;;;;;;;5098648;28;20027;-73
2021/11/15 00:13:57;;;;;;;16.77;11.63;;;;;;;;;;5115058;28;20027;-74
2021/11/15 00:16:23;;;;;;;19.27;11.88;;;;;;;;;;5113971;28;20024;-74
2021/11/15 00:18:49;;;;;;;19.25;11.43;;;;;;;;;;5114702;28;20081;-74
2021/11/15 00:21:15;;;;;;;19.08;12.23;;;;;;;;;;5114725;27;20019;-74
2021/11/15 00:23:41;;;;;;;17.75;10.93;;;;;;;;;;5114701;28;20035;-74
2021/11/15 00:26:07;;;;;;;17.02;11.30;;;;;;;;;;5114653;28;20107;-75
2021/11/15 00:28:33;;;;;;;17.67;11.45;;;;;;;;;;5114589;28;20019;-73
2021/11/15 00:30:59;;;;;;;17.83;12.00;;;;;;;;;;5114631;28;20026;-72
2021/11/15 00:33:26;;;;;;;17.90;10.85;;;;;;;;;;5095463;28;20034;-74
2021/11/15 00:35:52;;;;;;;18.60;12.27;;;;;;;;;;5096128;28;20109;-73
2021/11/15 00:38:19;;;;;;;16.95;11.02;;;;;;;;;;5114285;28;20043;-73
2021/11/15 00:40:46;;;;;;;17.00;11.63;;;;;;;;;;5114383;28;20015;-72
2021/11/15 00:43:12;;;;;;;22.75;11.90;;;;;;;;;;5096054;28;20106;-73
2021/11/15 00:45:38;;;;;;;17.60;11.57;;;;;;;;;;5095973;28;20015;-73
2021/11/15 00:48:05;;;;;;;15.88;10.90;;;;;;;;;;5109693;28;20379;-73
2021/11/15 00:50:31;;;;;;;15.35;10.05;;;;;;;;;;5093228;28;20044;-75
2021/11/15 00:52:57;;;;;;;16.98;11.30;;;;;;;;;;5093868;28;20111;-75
2021/11/15 00:55:24;;;;;;;18.95;10.05;;;;;;;;;;5093621;28;20043;-73
2021/11/15 00:57:50;;;;;;;16.85;11.18;;;;;;;;;;5093572;28;20089;-75
2021/11/15 01:00:19;;;;;;;18.17;11.45;;;;;;;;;;5094345;28;20020;-75
2021/11/15 01:02:45;;;;;;;18.13;11.27;;;;;;;;;;5093797;28;20036;-75
2021/11/15 01:05:11;;;;;;;18.65;10.70;;;;;;;;;;5093529;28;20020;-74
2021/11/15 01:07:38;;;;;;;19.35;10.73;;;;;;;;;;5093955;28;20103;-76
2021/11/15 01:10:05;;;;;;;17.33;10.95;;;;;;;;;;5093319;28;20042;-73
2021/11/15 01:12:31;;;;;;;17.80;11.13;;;;;;;;;;5075082;28;20030;-75
2021/11/15 01:14:58;;;;;;;18.50;12.20;;;;;;;;;;5093062;28;20058;-73
2021/11/15 01:17:24;;;;;;;16.73;10.80;;;;;;;;;;5093504;28;20490;-73
2021/11/15 01:19:50;;;;;;;15.30;10.35;;;;;;;;;;5075232;28;20024;-73
2021/11/15 01:22:16;;;;;;;16.40;10.55;;;;;;;;;;5093351;28;20020;-73
2021/11/15 01:24:42;;;;;;;17.55;11.13;;;;;;;;;;5093702;28;20070;-72
2021/11/15 01:27:09;;;;;;;14.07;9.77;;;;;;;;;;5093293;28;20024;-73
2021/11/15 01:29:35;;;;;;;15.10;10.57;;;;;;;;;;5074635;28;20051;-74
2021/11/15 01:32:01;;;;;;;16.80;11.27;;;;;;;;;;5092993;28;20020;-73
2021/11/15 01:34:29;;;;;;;15.65;10.25;;;;;;;;;;5093006;28;20059;-71
2021/11/15 01:36:55;;;;;;;13.30;9.63;;;;;;;;;;5092990;28;20073;-74
2021/11/15 01:39:23;;;;;;;16.40;9.98;;;;;;;;;;5092564;28;20509;-73
2021/11/15 01:41:49;;;;;;;17.73;9.48;;;;;;;;;;5093810;28;20047;-76
2021/11/15 01:44:15;;;;;;;16.45;10.90;;;;;;;;;;5074651;28;20078;-75
2021/11/15 01:46:41;;;;;;;16.13;10.68;;;;;;;;;;5092702;28;20024;-75
2021/11/15 01:49:07;;;;;;;17.63;10.95;;;;;;;;;;5105865;28;20047;-71
2021/11/15 01:51:33;;;;;;;15.23;10.07;;;;;;;;;;5113020;28;20046;-74
2021/11/15 01:54:00;;;;;;;15.13;10.25;;;;;;;;;;5113061;28;20031;-74
2021/11/15 01:56:26;;;;;;;15.52;10.57;;;;;;;;;;5112911;28;20533;-70
2021/11/15 01:58:52;;;;;;;16.17;10.30;;;;;;;;;;5112032;28;20027;-74
2021/11/15 02:01:18;;;;;;;18.30;10.65;;;;;;;;;;5112578;28;20024;-74
2021/11/15 02:03:44;;;;;;;48.92;12.48;;;;;;;;;;5094754;28;20023;-72
2021/11/15 02:06:11;;;;;;;16.30;10.60;;;;;;;;;;5112849;28;20020;-70
2021/11/15 02:08:38;;;;;;;14.98;10.32;;;;;;;;;;5102377;28;20024;-71
2021/11/15 02:11:04;;;;;;;14.88;10.20;;;;;;;;;;5092422;28;20016;-67
2021/11/15 02:13:31;;;;;;;18.73;10.77;;;;;;;;;;5092281;28;20028;-73
2021/11/15 02:15:58;;;;;;;16.42;10.57;;;;;;;;;;5092822;28;20027;-74
2021/11/15 02:18:24;;;;;;;19.58;11.35;;;;;;;;;;5073982;28;20063;-72
2021/11/15 02:20:56;;;;;;;18.80;11.00;;;;;;;;;;5092230;28;20024;-75
2021/11/15 02:23:23;;;;;;;19.98;11.55;;;;;;;;;;5092422;28;20029;-72
2021/11/15 02:25:50;;;;;;;15.52;9.50;;;;;;;;;;5092199;28;20016;-71
2021/11/15 02:28:16;;;;;;;15.70;9.65;;;;;;;;;;5074027;28;20028;-69
2021/11/15 02:30:43;;;;;;;17.38;10.23;;;;;;;;;;5091996;28;20081;-68
2021/11/15 02:33:10;;;;;;;16.27;9.88;;;;;;;;;;5092497;28;20105;-70
2021/11/15 02:35:36;;;;;;;16.98;10.15;;;;;;;;;;5091829;28;20026;-66
2021/11/15 02:38:04;;;;;;;17.42;9.32;;;;;;;;;;5092351;28;20056;-69
2021/11/15 02:40:30;;;;;;;15.50;9.88;;;;;;;;;;5092158;28;20139;-74
2021/11/15 02:42:57;;;;;;;14.88;9.80;;;;;;;;;;5091842;28;20024;-70
2021/11/15 02:45:24;;;;;;;21.45;8.95;;;;;;;;;;5091655;28;20016;-72
2021/11/15 02:47:50;;;;;;;13.02;8.88;;;;;;;;;;5092116;28;20024;-70
2021/11/15 02:50:20;;;;;;;15.82;9.65;;;;;;;;;;5092162;28;20027;-71
2021/11/15 02:52:50;;;;;;;13.52;9.15;;;;;;;;;;5092150;28;20032;-71
2021/11/15 02:55:16;;;;;;;15.55;9.65;;;;;;;;;;5101309;28;20026;-70
2021/11/15 02:57:42;;;;;;;17.40;10.65;;;;;;;;;;5111863;28;20057;-71
2021/11/15 03:00:16;;;;;;;14.88;9.57;;;;;;;;;;5112122;28;20148;-69
2021/11/15 03:02:42;;;;;;;17.08;10.10;;;;;;;;;;5112000;28;20028;-72
2021/11/15 03:05:08;;;;;;;14.18;9.60;;;;;;;;;;5112173;28;20024;-71
2021/11/15 03:07:34;;;;;;;15.63;10.00;;;;;;;;;;5112356;28;20024;-70
2021/11/15 03:10:01;;;;;;;14.75;9.77;;;;;;;;;;5112246;28;20028;-71
2021/11/15 03:12:31;;;;;;;15.48;9.50;;;;;;;;;;5111337;28;20019;-72
2021/11/15 03:14:57;;;;;;;15.35;9.32;;;;;;;;;;5112123;28;20020;-72
2021/11/15 03:17:23;;;;;;;15.32;9.82;;;;;;;;;;5094012;28;20027;-68
2021/11/15 03:19:49;;;;;;;15.13;9.25;;;;;;;;;;5112361;28;20031;-72
2021/11/15 03:22:15;;;;;;;15.43;10.27;;;;;;;;;;5112213;28;20024;-71
2021/11/15 03:24:41;;;;;;;13.73;9.20;;;;;;;;;;5111951;28;20503;-72
2021/11/15 03:27:07;;;;;;;16.73;9.68;;;;;;;;;;5112084;28;20015;-70
2021/11/15 03:29:33;;;;;;;14.45;9.45;;;;;;;;;;5093828;28;20024;-72
2021/11/15 03:32:00;;;;;;;14.95;9.60;;;;;;;;;;5111952;28;20048;-68
2021/11/15 03:34:26;;;;;;;16.45;10.18;;;;;;;;;;5112156;28;20020;-70
2021/11/15 03:36:52;;;;;;;14.27;9.60;;;;;;;;;;5111984;28;20024;-74
2021/11/15 03:39:18;;;;;;;15.52;8.75;;;;;;;;;;5111607;28;20076;-70
2021/11/15 03:41:45;;;;;;;15.23;10.00;;;;;;;;;;5093670;28;20031;-72
2021/11/15 03:44:11;;;;;;;16.33;9.70;;;;;;;;;;5111901;28;20028;-74
2021/11/15 03:46:39;;;;;;;14.35;9.75;;;;;;;;;;5093470;28;20026;-74
2021/11/15 03:49:06;;;;;;;16.33;9.18;;;;;;;;;;5111801;28;20031;-74
2021/11/15 03:51:34;;;;;;;15.75;9.30;;;;;;;;;;5112152;28;20073;-72
2021/11/15 03:54:01;;;;;;;13.07;8.88;;;;;;;;;;5111614;28;20107;-71
2021/11/15 03:56:28;;;;;;;13.43;9.45;;;;;;;;;;5111534;28;20359;-72
2021/11/15 03:58:54;;;;;;;13.02;9.05;;;;;;;;;;5111489;28;20028;-72
2021/11/15 04:01:24;;;;;;;15.18;9.73;;;;;;;;;;5111502;28;20383;-74
2021/11/15 04:03:51;;;;;;;16.27;9.55;;;;;;;;;;5111810;28;20064;-79
2021/11/15 04:06:26;;;;;;;15.88;9.20;;;;;;;;;;5111537;28;20016;-74
2021/11/15 04:08:54;;;;;;;16.55;9.90;;;;;;;;;;5111613;28;20024;-77
2021/11/15 04:11:21;;;;;;;14.27;9.18;;;;;;;;;;5111715;28;20026;-76
2021/11/15 04:13:49;;;;;;;16.25;9.73;;;;;;;;;;5111688;28;20024;-76
2021/11/15 04:16:16;;;;;;;13.27;8.77;;;;;;;;;;5111486;28;20027;-72
2021/11/15 04:18:47;;;;;;;13.43;8.90;;;;;;;;;;5111373;28;20039;-69
2021/11/15 04:21:14;;;;;;;14.20;8.93;;;;;;;;;;5111505;28;20065;-70
2021/11/15 04:23:41;;;;;;;15.27;9.50;;;;;;;;;;5093580;28;20107;-72
2021/11/15 04:26:07;;;;;;;11.25;8.18;;;;;;;;;;5115214;28;20039;-74
2021/11/15 04:28:33;;;;;;;12.05;8.23;;;;;;;;;;5115170;28;20043;-75
2021/11/15 04:30:59;;;;;;;16.30;9.18;;;;;;;;;;5115080;28;20027;-74
2021/11/15 04:33:25;;;;;;;12.88;8.90;;;;;;;;;;5115024;28;20028;-71
2021/11/15 04:35:52;;;;;;;12.57;8.27;;;;;;;;;;5114901;28;20055;-74
2021/11/15 04:38:19;;;;;;;14.30;8.93;;;;;;;;;;5114607;28;20055;-71
2021/11/15 04:40:45;;;;;;;13.93;9.10;;;;;;;;;;5114832;28;20023;-75
2021/11/15 04:43:11;;;;;;;16.30;8.98;;;;;;;;;;5114858;28;20050;-73
2021/11/15 04:45:37;;;;;;;13.75;9.30;;;;;;;;;;5099643;28;20046;-73
2021/11/15 04:48:03;;;;;;;12.00;8.13;;;;;;;;;;5094226;28;20031;-75
2021/11/15 04:50:30;;;;;;;15.50;9.73;;;;;;;;;;5094165;28;20028;-71
2021/11/15 04:52:56;;;;;;;12.02;7.90;;;;;;;;;;5094110;28;20081;-70
2021/11/15 04:55:23;;;;;;;12.77;8.05;;;;;;;;;;5093916;28;20486;-72
2021/11/15 04:57:49;;;;;;;11.93;7.95;;;;;;;;;;5075949;28;20056;-75
2021/11/15 05:00:20;;;;;;;12.50;8.00;;;;;;;;;;5094235;28;20063;-73
2021/11/15 05:02:46;;;;;;;14.23;8.70;;;;;;;;;;5094226;28;20052;-74
2021/11/15 05:05:13;;;;;;;12.93;8.02;;;;;;;;;;5094123;28;20613;-73
2021/11/15 05:07:39;;;;;;;13.40;8.93;;;;;;;;;;5094018;28;20024;-71
2021/11/15 05:10:06;;;;;;;12.98;8.65;;;;;;;;;;5075433;28;20482;-73
2021/11/15 05:12:35;;;;;;;13.43;9.38;;;;;;;;;;5093857;28;20055;-70
2021/11/15 05:15:02;;;;;;;13.88;9.30;;;;;;;;;;5093780;28;20027;-73
2021/11/15 05:17:28;;;;;;;14.75;8.85;;;;;;;;;;5093443;28;20035;-73
2021/11/15 05:19:54;;;;;;;13.48;8.75;;;;;;;;;;5093503;28;20024;-73
2021/11/15 05:22:20;;;;;;;13.60;9.00;;;;;;;;;;5093559;28;20076;-73
2021/11/15 05:24:46;;;;;;;12.68;8.68;;;;;;;;;;5075385;28;20067;-73
2021/11/15 05:27:12;;;;;;;12.50;8.70;;;;;;;;;;5075396;28;20525;-74
2021/11/15 05:29:38;;;;;;;12.43;8.20;;;;;;;;;;5093503;28;20028;-73
2021/11/15 05:32:04;;;;;;;12.82;8.43;;;;;;;;;;5093401;28;20030;-74
2021/11/15 05:34:31;;;;;;;14.50;8.57;;;;;;;;;;5093478;28;20101;-72
2021/11/15 05:36:57;;;;;;;14.13;8.98;;;;;;;;;;5092903;28;20028;-74
2021/11/15 05:39:23;;;;;;;13.35;8.52;;;;;;;;;;5093244;28;20048;-74
2021/11/15 05:41:49;;;;;;;12.07;8.75;;;;;;;;;;5093462;28;20023;-73
2021/11/15 05:44:16;;;;;;;13.35;8.02;;;;;;;;;;5093143;28;20024;-72
2021/11/15 05:46:42;;;;;;;12.88;8.48;;;;;;;;;;5093072;28;20030;-72
2021/11/15 05:49:08;;;;;;;13.80;8.65;;;;;;;;;;5093118;28;20056;-72
2021/11/15 05:51:34;;;;;;;13.80;9.13;;;;;;;;;;5093484;28;20027;-69
2021/11/15 05:54:00;;;;;;;14.05;8.65;;;;;;;;;;5093487;28;20656;-72
2021/11/15 05:56:26;;;;;;;14.98;9.70;;;;;;;;;;5093357;28;20032;-75
2021/11/15 05:58:52;;;;;;;12.60;8.38;;;;;;;;;;5093518;28;20040;-72
2021/11/15 06:01:18;;;;;;;13.60;9.10;;;;;;;;;;5093462;28;20023;-74
2021/11/15 06:03:44;;;;;;;14.23;8.90;;;;;;;;;;5074776;28;20084;-74
2021/11/15 06:06:10;;;;;;;13.80;8.73;;;;;;;;;;5093165;28;20020;-75
2021/11/15 06:08:37;;;;;;;15.77;9.15;;;;;;;;;;5092907;28;20028;-74
2021/11/15 06:11:03;;;;;;;13.35;8.00;;;;;;;;;;5092805;28;20508;-75
2021/11/15 06:13:30;;;;;;;10.70;7.80;;;;;;;;;;5092776;28;20028;-72
2021/11/15 06:15:56;;;;;;;12.40;8.30;;;;;;;;;;5092600;28;20043;-74
2021/11/15 06:18:22;;;;;;;13.43;9.40;;;;;;;;;;5092632;28;20047;-73
2021/11/15 06:20:48;;;;;;;13.65;9.60;;;;;;;;;;5074423;28;20487;-78
2021/11/15 06:23:14;;;;;;;12.57;8.65;;;;;;;;;;5092841;28;20046;-77
2021/11/15 06:25:40;;;;;;;12.93;8.75;;;;;;;;;;5073558;28;20054;-65
2021/11/15 06:28:07;;;;;;;13.95;8.95;;;;;;;;;;5112269;28;20039;-74
2021/11/15 06:30:33;;;;;;;14.63;8.93;;;;;;;;;;5112697;28;20024;-74
2021/11/15 06:32:59;;;;;;;16.05;9.23;;;;;;;;;;5112723;28;20049;-74
2021/11/15 06:35:27;;;;;;;13.13;8.90;;;;;;;;;;5112498;28;20661;-74
2021/11/15 06:37:53;;;;;;;14.23;9.00;;;;;;;;;;5112279;28;20040;-74
2021/11/15 06:40:20;;;;;;;17.42;10.32;;;;;;;;;;5112086;28;20024;-72
2021/11/15 06:42:46;;;;;;;13.82;8.75;;;;;;;;;;5112503;28;20103;-72
2021/11/15 06:45:13;;;;;;;14.88;9.40;;;;;;;;;;5112553;28;20023;-72
2021/11/15 06:47:41;;;;;;;13.98;8.88;;;;;;;;;;5112301;28;20031;-75
2021/11/15 06:50:09;;;;;;;16.50;10.20;;;;;;;;;;5077514;28;20092;-73
2021/11/15 06:52:35;;;;;;;15.82;10.13;;;;;;;;;;5094089;28;20062;-75
2021/11/15 06:55:01;;;;;;;13.98;9.65;;;;;;;;;;5112318;28;20104;-68
2021/11/15 06:57:28;;;;;;;17.83;9.05;;;;;;;;;;5094286;28;20020;-73
2021/11/15 06:59:55;;;;;;;15.93;10.05;;;;;;;;;;5112981;28;20020;-75
2021/11/15 07:02:21;;;;;;;16.30;10.40;;;;;;;;;;5112907;28;20023;-75
2021/11/15 07:04:48;;;;;;;14.48;9.32;;;;;;;;;;5112755;28;20031;-75
2021/11/15 07:07:14;;;;;;;15.70;10.40;;;;;;;;;;5094517;28;20034;-74
2021/11/15 07:09:41;;;;;;;16.48;10.73;;;;;;;;;;5112800;28;20023;-75
2021/11/15 07:12:07;;;;;;;16.52;10.48;;;;;;;;;;5112917;28;20026;-73
2021/11/15 07:14:33;;;;;;;15.27;10.05;;;;;;;;;;5094367;28;20027;-75
2021/11/15 07:16:59;;;;;;;17.80;11.35;;;;;;;;;;5094013;28;20043;-73
2021/11/15 07:19:25;;;;;;;20.45;11.35;;;;;;;;;;5111995;28;20031;-73
2021/11/15 07:21:52;;;;;;;16.55;10.40;;;;;;;;;;5111935;28;20528;-74
2021/11/15 07:24:18;;;;;;;19.88;11.30;;;;;;;;;;5111738;28;20427;-72
2021/11/15 07:26:44;;;;;;;18.55;10.45;;;;;;;;;;5111959;28;20020;-75
2021/11/15 07:29:10;;;;;;;17.98;9.75;;;;;;;;;;5111706;28;20019;-75
2021/11/15 07:31:38;;;;;;;16.58;10.93;;;;;;;;;;5093525;28;20034;-69
2021/11/15 07:34:04;;;;;;;17.13;11.32;;;;;;;;;;5111880;28;20026;-73
2021/11/15 07:36:32;;;;;;;17.15;10.70;;;;;;;;;;5111906;28;20095;-73
2021/11/15 07:38:58;;;;;;;17.30;10.70;;;;;;;;;;5111522;28;20054;-72
2021/11/15 07:41:24;;;;;;;21.10;11.30;;;;;;;;;;5111722;28;20530;-71
2021/11/15 07:43:50;;;;;;;17.98;11.20;;;;;;;;;;5111643;28;20031;-69
2021/11/15 07:46:16;;;;;;;17.75;11.23;;;;;;;;;;5111757;28;20016;-70
2021/11/15 07:48:43;;;;;;;17.45;11.02;;;;;;;;;;5111785;28;20436;-72
2021/11/15 07:51:09;;;;;;;16.15;10.30;;;;;;;;;;5111574;28;20099;-73
2021/11/15 07:53:38;;;;;;;16.63;10.95;;;;;;;;;;5111667;28;20020;-68
2021/11/15 07:56:06;;;;;;;15.18;10.50;;;;;;;;;;5093358;28;20024;-75
2021/11/15 07:58:32;;;;;;;16.63;10.98;;;;;;;;;;5111759;28;20359;-71
2021/11/15 08:00:58;;;;;;;18.92;11.57;;;;;;;;;;5115499;28;20016;-72
2021/11/15 08:03:24;;;;;;;18.40;11.20;;;;;;;;;;5115500;28;20023;-72
2021/11/15 08:05:50;;;;;;;18.52;12.38;;;;;;;;;;5097124;28;20077;-72
2021/11/15 08:08:16;;;;;;;18.38;10.98;;;;;;;;;;5097132;28;20026;-66
2021/11/15 08:10:43;;;;;;;16.85;11.10;;;;;;;;;;5115083;28;20027;-69
2021/11/15 08:13:09;;;;;;;18.30;11.52;;;;;;;;;;5115153;28;20091;-69
2021/11/15 08:15:35;;;;;;;22.08;13.25;;;;;;;;;;5096894;28;20076;-69
2021/11/15 08:18:03;;;;;;;18.60;11.95;;;;;;;;;;5115073;28;20020;-73
2021/11/15 08:20:31;;;;;;;19.83;12.77;;;;;;;;;;5114953;28;20500;-72
2021/11/15 08:23:00;;;;;;;18.98;12.82;;;;;;;;;;5115095;28;20382;-71
2021/11/15 08:25:30;;;;;;;18.98;11.77;;;;;;;;;;5115267;28;20015;-76
2021/11/15 08:28:00;;;;;;;19.75;12.02;;;;;;;;;;5097101;28;20024;-76
2021/11/15 08:30:26;;;;;;;21.25;13.02;;;;;;;;;;5094689;28;20024;-75
2021/11/15 08:32:52;;;;;;;19.05;11.25;;;;;;;;;;5076256;28;20031;-70
2021/11/15 08:35:20;;;;;;;21.45;12.45;;;;;;;;;;5094471;28;20031;-73
2021/11/15 08:38:09;;;;;;;18.75;12.25;;;;;;;;;;5094166;28;20055;-70
2021/11/15 08:40:35;;;;;;;17.70;11.88;;;;;;;;;;5048066;28;20039;-71
2021/11/15 08:43:01;;;;;;;16.95;11.07;;;;;;;;;;5076379;28;20097;-71
2021/11/15 08:45:27;;;;;;;16.98;11.70;;;;;;;;;;5076279;28;20150;-69
2021/11/15 08:47:53;;;;;;;22.20;12.25;;;;;;;;;;5094465;28;20545;-73
2021/11/15 08:50:19;;;;;;;21.25;12.95;;;;;;;;;;5094351;28;20615;-71
2021/11/15 08:52:45;;;;;;;35.85;12.82;;;;;;;;;;5094170;28;20409;-73
2021/11/15 08:55:11;;;;;;;18.13;12.02;;;;;;;;;;5092446;28;20514;-70
2021/11/15 08:57:37;;;;;;;23.42;12.98;;;;;;;;;;5075444;28;20505;-70
2021/11/15 09:00:04;;;;;;;20.13;12.93;;;;;;;;;;5075789;28;20020;-68
2021/11/15 09:02:31;;;;;;;25.70;14.02;;;;;;;;;;5093409;28;20482;-74
2021/11/15 09:04:57;;;;;;;32.10;14.88;;;;;;;;;;5093613;28;20390;-74
2021/11/15 09:07:23;;;;;;;23.75;13.43;;;;;;;;;;5093813;28;20024;-71
2021/11/15 09:09:49;;;;;;;27.05;13.52;;;;;;;;;;5093379;28;20024;-72
2021/11/15 09:12:16;;;;;;;23.42;12.20;;;;;;;;;;5092972;28;20576;-74
2021/11/15 09:14:42;;;;;;;23.40;13.60;;;;;;;;;;5075170;28;20031;-74
2021/11/15 09:17:08;;;;;;;23.98;13.48;;;;;;;;;;5093724;28;20030;-72
2021/11/15 09:19:34;;;;;;;23.15;12.95;;;;;;;;;;5093418;28;20483;-72
2021/11/15 09:22:01;;;;;;;22.55;12.93;;;;;;;;;;5093481;28;20024;-74
2021/11/15 09:24:27;;;;;;;21.15;11.82;;;;;;;;;;5093274;28;20051;-72
2021/11/15 09:26:54;;;;;;;23.58;13.52;;;;;;;;;;5093340;28;20016;-73
2021/11/15 09:29:21;;;;;;;22.50;13.05;;;;;;;;;;5075285;28;20026;-71
2021/11/15 09:31:47;;;;;;;22.77;12.50;;;;;;;;;;5075132;28;20507;-72
2021/11/15 09:34:14;;;;;;;20.40;12.55;;;;;;;;;;5075105;28;20024;-71
2021/11/15 09:36:40;;;;;;;23.30;13.27;;;;;;;;;;5093071;28;20065;-71
2021/11/15 09:39:08;;;;;;;23.52;12.50;;;;;;;;;;5092829;28;20047;-72
2021/11/15 09:41:34;;;;;;;20.27;11.98;;;;;;;;;;5092993;28;20117;-71
2021/11/15 09:44:00;;;;;;;22.60;12.48;;;;;;;;;;5093055;28;20020;-72
2021/11/15 09:46:27;;;;;;;21.27;12.68;;;;;;;;;;5074819;28;20026;-72
2021/11/15 09:49:03;;;;;;;19.67;12.52;;;;;;;;;;5075117;28;20119;-72
2021/11/15 09:51:29;;;;;;;19.98;11.18;;;;;;;;;;5092924;28;20024;-69
2021/11/15 09:53:56;;;;;;;19.80;10.77;;;;;;;;;;5074737;28;20024;-72
2021/11/15 09:56:23;;;;;;;19.98;11.68;;;;;;;;;;5092833;28;20468;-70
2021/11/15 09:58:49;;;;;;;18.23;11.60;;;;;;;;;;5092574;28;20036;-72
2021/11/15 10:01:16;;;;;;;21.42;11.68;;;;;;;;;;5092463;28;20020;-72
2021/11/15 10:03:42;;;;;;;17.38;10.48;;;;;;;;;;5092444;28;20073;-71
2021/11/15 10:06:08;;;;;;;19.48;11.85;;;;;;;;;;5092805;28;20027;-70
2021/11/15 10:08:55;;;;;;;21.75;12.50;;;;;;;;;;5074187;28;20034;-72
2021/11/15 10:11:22;;;;;;;19.92;11.48;;;;;;;;;;5092573;28;20028;-70
2021/11/15 10:13:49;;;;;;;20.10;11.73;;;;;;;;;;5092137;28;20032;-70
2021/11/15 10:16:15;;;;;;;20.63;11.80;;;;;;;;;;5073888;28;20053;-70
2021/11/15 10:18:41;;;;;;;18.40;11.68;;;;;;;;;;5073890;28;20657;-70
2021/11/15 10:21:31;;;;;;;16.10;11.05;;;;;;;;;;5092320;28;20051;-71
2021/11/15 10:24:06;;;;;;;19.10;10.77;;;;;;;;;;5080922;28;20419;-74
2021/11/15 10:26:37;;;;;;;22.48;11.38;;;;;;;;;;5091982;28;20020;-71
2021/11/15 10:29:06;;;;;;;18.83;10.57;;;;;;;;;;5092284;28;20539;-74
2021/11/15 10:31:37;;;;;;;20.05;10.75;;;;;;;;;;5092086;28;20024;-74
2021/11/15 10:34:07;;;;;;;19.02;10.95;;;;;;;;;;5073694;28;20050;-72
2021/11/15 10:37:03;;;;;;;18.83;10.60;;;;;;;;;;5073574;28;20047;-74
2021/11/15 10:39:42;;;;;;;17.25;10.82;;;;;;;;;;5073667;28;20044;-74
2021/11/15 10:42:13;;;;;;;19.80;11.38;;;;;;;;;;5091910;28;20030;-74
2021/11/15 10:44:44;;;;;;;17.73;11.00;;;;;;;;;;5091723;28;20542;-73
2021/11/15 10:47:10;;;;;;;21.52;11.73;;;;;;;;;;5073609;28;20055;-74
2021/11/15 10:49:37;;;;;;;15.13;9.98;;;;;;;;;;5078263;28;20023;-73
2021/11/15 10:52:07;;;;;;;16.85;10.80;;;;;;;;;;5112567;28;20022;-73
2021/11/15 10:54:56;;;;;;;18.98;11.40;;;;;;;;;;5111778;28;20031;-71
2021/11/15 10:57:49;;;;;;;20.02;11.35;;;;;;;;;;5110440;28;20080;-73
2021/11/15 11:00:19;;;;;;;17.20;10.80;;;;;;;;;;5108481;28;20397;-73
2021/11/15 11:02:50;;;;;;;15.73;10.82;;;;;;;;;;5093772;28;20381;-74
2021/11/15 11:05:16;;;;;;;15.93;10.68;;;;;;;;;;5111851;28;20023;-70
2021/11/15 11:07:44;;;;;;;17.48;11.57;;;;;;;;;;5111773;28;20020;-70
2021/11/15 11:10:11;;;;;;;16.63;11.18;;;;;;;;;;5111834;28;20027;-70
2021/11/15 11:12:44;;;;;;;17.08;11.18;;;;;;;;;;5111855;28;20016;-75
2021/11/15 11:15:35;;;;;;;15.15;9.85;;;;;;;;;;5111767;28;20026;-73
2021/11/15 11:18:20;;;;;;;17.40;10.13;;;;;;;;;;5093747;28;20461;-70
2021/11/15 11:26:19;;;;;;;20.23;11.70;;;;;;;;;;5112169;28;20425;-69
2021/11/15 11:28:53;;;;;;;16.38;10.05;;;;;;;;;;5111392;28;20485;-72
2021/11/15 11:31:19;;;;;;;16.63;11.27;;;;;;;;;;5079741;28;20024;-71
2021/11/15 11:33:46;;;;;;;19.75;12.30;;;;;;;;;;5073635;28;20044;-73
2021/11/15 11:36:12;;;;;;;17.60;11.05;;;;;;;;;;5095583;28;20513;-72
2021/11/15 11:38:39;;;;;;;16.95;10.77;;;;;;;;;;5095205;28;20040;-73
2021/11/15 11:41:05;;;;;;;15.60;10.40;;;;;;;;;;5095436;28;20024;-69
2021/11/15 11:43:31;;;;;;;18.15;10.95;;;;;;;;;;5095294;28;20016;-71
2021/11/15 11:45:58;;;;;;;17.13;11.02;;;;;;;;;;5095289;28;20028;-70
2021/11/15 11:48:24;;;;;;;19.85;11.38;;;;;;;;;;5076990;28;20543;-72
2021/11/15 11:50:52;;;;;;;17.95;10.40;;;;;;;;;;5094869;28;20475;-71
2021/11/15 11:53:24;;;;;;;17.30;10.77;;;;;;;;;;5077103;28;20428;-72
2021/11/15 11:55:50;;;;;;;16.75;10.80;;;;;;;;;;5095004;28;20360;-69
2021/11/15 11:58:21;;;;;;;17.33;11.20;;;;;;;;;;5095114;28;20040;-70
2021/11/15 12:00:47;;;;;;;21.95;12.65;;;;;;;;;;5095038;28;20024;-74
2021/11/15 12:03:13;;;;;;;16.80;11.15;;;;;;;;;;5094981;28;20101;-72
2021/11/15 12:05:39;;;;;;;17.55;11.27;;;;;;;;;;5094793;28;20016;-74
2021/11/15 12:08:09;;;;;;;17.65;11.52;;;;;;;;;;5076699;28;20032;-74
2021/11/15 12:11:16;;;;;;;19.92;11.85;;;;;;;;;;5076954;28;20028;-71
2021/11/15 12:13:45;;;;;;;18.42;10.68;;;;;;;;;;5092561;28;20039;-74
2021/11/15 12:16:14;;;;;;;18.35;11.95;;;;;;;;;;5094728;28;20023;-74
2021/11/15 12:18:53;;;;;;;17.10;11.00;;;;;;;;;;5094549;28;20043;-73
2021/11/15 12:21:22;;;;;;;17.90;11.55;;;;;;;;;;5094564;28;20020;-74
2021/11/15 12:23:51;;;;;;;18.10;12.35;;;;;;;;;;5094562;28;20031;-73
2021/11/15 12:26:18;;;;;;;20.48;12.60;;;;;;;;;;5094644;28;20051;-74
2021/11/15 12:28:48;;;;;;;21.27;12.95;;;;;;;;;;5094622;28;20023;-71
2021/11/15 12:31:16;;;;;;;22.20;11.88;;;;;;;;;;5076186;28;20027;-72
2021/11/15 12:33:43;;;;;;;20.83;12.32;;;;;;;;;;5094463;28;20024;-72
2021/11/15 12:36:10;;;;;;;19.65;12.27;;;;;;;;;;5094304;28;20479;-75
2021/11/15 12:38:51;;;;;;;18.65;12.30;;;;;;;;;;5094049;28;20050;-74
2021/11/15 12:41:17;;;;;;;19.27;12.73;;;;;;;;;;5075792;28;20520;-73
2021/11/15 12:44:07;;;;;;;24.75;11.90;;;;;;;;;;5094155;28;20016;-69
2021/11/15 12:46:46;;;;;;;17.60;11.60;;;;;;;;;;5082139;28;20119;-70
2021/11/15 12:49:27;;;;;;;18.98;11.25;;;;;;;;;;5094022;28;20118;-68
2021/11/15 12:52:06;;;;;;;19.92;12.27;;;;;;;;;;5094110;28;20012;-70
2021/11/15 12:54:33;;;;;;;21.67;12.88;;;;;;;;;;5093996;28;20020;-71
2021/11/15 12:57:00;;;;;;;19.02;11.05;;;;;;;;;;5093976;28;20087;-72
2021/11/15 12:59:26;;;;;;;16.52;10.73;;;;;;;;;;5075778;28;20551;-70
2021/11/15 13:01:54;;;;;;;16.92;10.65;;;;;;;;;;5075550;28;20052;-69
2021/11/15 13:04:20;;;;;;;17.05;10.43;;;;;;;;;;5075668;28;20022;-72
2021/11/15 13:06:46;;;;;;;18.45;11.00;;;;;;;;;;5077039;28;20016;-73
2021/11/15 13:09:15;;;;;;;17.25;10.38;;;;;;;;;;5095783;28;20036;-71
2021/11/15 13:11:41;;;;;;;19.15;10.93;;;;;;;;;;5074959;28;20024;-71
2021/11/15 13:14:08;;;;;;;17.17;10.45;;;;;;;;;;5104395;28;20061;-71
2021/11/15 13:16:34;;;;;;;15.60;10.40;;;;;;;;;;5113906;28;20028;-73
2021/11/15 13:19:00;;;;;;;17.13;10.55;;;;;;;;;;5113881;28;20114;-72
2021/11/15 13:21:26;;;;;;;15.50;9.65;;;;;;;;;;5114022;28;20015;-70
2021/11/15 13:23:53;;;;;;;20.75;10.63;;;;;;;;;;5113752;28;20047;-73
2021/11/15 13:26:20;;;;;;;17.75;10.18;;;;;;;;;;5113858;28;20052;-70
2021/11/15 13:28:46;;;;;;;14.32;9.38;;;;;;;;;;5098917;28;20501;-71
2021/11/15 13:31:13;;;;;;;17.15;10.63;;;;;;;;;;5078377;28;20095;-70
2021/11/15 13:33:39;;;;;;;17.67;10.27;;;;;;;;;;5074946;28;20032;-73
2021/11/15 13:36:06;;;;;;;16.73;10.02;;;;;;;;;;5093133;28;20049;-73
2021/11/15 13:38:33;;;;;;;16.10;9.93;;;;;;;;;;5092970;28;20048;-72
2021/11/15 13:40:59;;;;;;;14.32;9.48;;;;;;;;;;5075192;28;20024;-69
2021/11/15 13:43:27;;;;;;;15.50;9.88;;;;;;;;;;5093122;28;20510;-75
2021/11/15 13:45:54;;;;;;;15.90;9.93;;;;;;;;;;5074680;28;20565;-72
2021/11/15 13:48:21;;;;;;;13.73;8.68;;;;;;;;;;5092943;28;20099;-74
2021/11/15 13:50:48;;;;;;;15.95;9.52;;;;;;;;;;5107619;28;20491;-73
2021/11/15 13:53:14;;;;;;;15.05;9.57;;;;;;;;;;5113325;28;20019;-74
2021/11/15 13:55:41;;;;;;;17.63;9.70;;;;;;;;;;5113422;28;20020;-72
2021/11/15 13:58:07;;;;;;;17.10;10.32;;;;;;;;;;5112308;28;20063;-72
2021/11/15 14:00:33;;;;;;;15.68;9.63;;;;;;;;;;5095026;28;20408;-72
2021/11/15 14:02:59;;;;;;;16.55;9.30;;;;;;;;;;5113044;28;20051;-74
2021/11/15 14:05:25;;;;;;;16.40;9.15;;;;;;;;;;5113074;28;20016;-75
2021/11/15 14:07:51;;;;;;;17.63;9.43;;;;;;;;;;5112941;28;20024;-72
2021/11/15 14:10:17;;;;;;;15.40;8.85;;;;;;;;;;5112996;28;20029;-73
2021/11/15 14:12:43;;;;;;;17.10;8.63;;;;;;;;;;5094722;28;20023;-72
2021/11/15 14:15:11;;;;;;;17.60;9.25;;;;;;;;;;5112821;28;20020;-72
2021/11/15 14:17:37;;;;;;;21.45;10.50;;;;;;;;;;5112899;28;20054;-73
2021/11/15 14:20:04;;;;;;;22.42;10.65;;;;;;;;;;5094450;28;20712;-71
2021/11/15 14:22:30;;;;;;;18.33;9.57;;;;;;;;;;5112871;28;20024;-71
2021/11/15 14:24:56;;;;;;;21.70;9.68;;;;;;;;;;5112694;28;20019;-71
2021/11/15 14:27:23;;;;;;;19.23;8.57;;;;;;;;;;5094330;28;20019;-72
2021/11/15 14:29:50;;;;;;;27.55;11.07;;;;;;;;;;5112576;28;20029;-71